Time;durP1;ratioP1;P1;durP2;ratioP2;P2;SDS_P1;SDS_P2;PMS_P1;PMS_P2;Temp;Humidity;BMP_temperature;BMP_pressure;BME280_temperature;BME280_humidity;BME280_pressure;Samples;Min_cycle;Max_cycle;Signal;HPM_P1;HPM_P2
2023/10/04 00:00:27;;;;;;;8.23;3.65;;;13.50;99.90;;;;;;5075722;28;20040;-79
2023/10/04 00:02:54;;;;;;;;;;;13.50;99.90;;;;;;5079831;28;20040;-79
2023/10/04 00:05:22;;;;;;;8.65;3.83;;;13.50;99.90;;;;;;5081116;28;20006;-79
2023/10/04 00:07:50;;;;;;;8.95;3.92;;;13.50;99.90;;;;;;5074113;28;20044;-79
2023/10/04 00:10:17;;;;;;;10.02;4.00;;;13.50;99.90;;;;;;5071247;28;20051;-80
2023/10/04 00:12:43;;;;;;;;;;;13.50;99.90;;;;;;5090452;28;20496;-80
2023/10/04 00:15:13;;;;;;;11.25;4.13;;;13.40;99.90;;;;;;5077374;28;19920;-80
2023/10/04 00:17:41;;;;;;;7.93;3.20;;;13.40;99.90;;;;;;5081075;28;20056;-80
2023/10/04 00:20:10;;;;;;;8.95;4.20;;;13.40;99.90;;;;;;5084865;28;20123;-80
2023/10/04 00:22:40;;;;;;;10.13;3.80;;;13.40;99.90;;;;;;5069873;28;20497;-80
2023/10/04 00:25:16;;;;;;;10.55;3.60;;;13.40;99.90;;;;;;5070751;28;20415;-80
2023/10/04 00:27:43;;;;;;;8.73;3.10;;;13.40;99.90;;;;;;5099526;28;20520;-79
2023/10/04 00:30:14;;;;;;;9.52;3.40;;;13.40;99.90;;;;;;5072268;28;20071;-80
2023/10/04 00:32:40;;;;;;;11.75;3.60;;;13.40;99.90;;;;;;5077847;28;20515;-80
2023/10/04 00:35:09;;;;;;;7.68;3.30;;;13.40;99.90;;;;;;5074755;28;20035;-80
2023/10/04 00:37:35;;;;;;;7.13;3.00;;;13.40;99.90;;;;;;5096172;28;20040;-80
2023/10/04 00:40:09;;;;;;;8.85;3.22;;;13.40;99.90;;;;;;5081651;28;20164;-80
2023/10/04 00:42:35;;;;;;;8.85;3.33;;;13.30;99.90;;;;;;5075619;28;20147;-80
2023/10/04 00:45:01;;;;;;;7.93;2.85;;;13.40;99.90;;;;;;5076084;28;20155;-81
2023/10/04 00:47:27;;;;;;;9.63;3.00;;;13.30;99.90;;;;;;5064562;28;20089;-80
2023/10/04 00:49:55;;;;;;;6.72;2.88;;;13.30;99.90;;;;;;5089890;28;20071;-80
2023/10/04 00:52:21;;;;;;;8.07;2.92;;;13.30;99.90;;;;;;5086550;28;20044;-81
2023/10/04 00:54:49;;;;;;;11.05;3.25;;;13.30;99.90;;;;;;5077235;28;20535;-80
2023/10/04 00:57:15;;;;;;;9.82;2.95;;;13.30;99.90;;;;;;5070943;28;20083;-80
2023/10/04 00:59:42;;;;;;;8.02;2.50;;;13.30;99.90;;;;;;5072092;28;20047;-80
2023/10/04 01:02:09;;;;;;;9.95;3.10;;;13.30;99.90;;;;;;5090782;28;20043;-80
2023/10/04 01:04:35;;;;;;;8.35;2.70;;;13.30;99.90;;;;;;5078649;28;20036;-80
2023/10/04 01:07:01;;;;;;;6.82;2.53;;;13.30;99.90;;;;;;5074667;28;20397;-80
2023/10/04 01:09:28;;;;;;;7.30;2.72;;;13.20;99.90;;;;;;5073224;28;20078;-80
2023/10/04 01:11:54;;;;;;;6.38;2.35;;;13.20;99.90;;;;;;5071734;28;20153;-80
2023/10/04 01:14:37;;;;;;;7.45;2.88;;;13.20;99.90;;;;;;5087606;28;20513;-80
2023/10/04 01:17:03;;;;;;;8.23;2.67;;;13.20;99.90;;;;;;5076719;28;20060;-80
2023/10/04 01:19:30;;;;;;;10.20;2.92;;;13.10;99.90;;;;;;5074082;28;20407;-80
2023/10/04 01:21:56;;;;;;;7.28;2.40;;;13.10;99.90;;;;;;5102811;28;20060;-80
2023/10/04 01:24:22;;;;;;;6.53;2.65;;;13.10;99.90;;;;;;5075026;28;20079;-81
2023/10/04 01:26:48;;;;;;;9.40;2.95;;;13.10;99.90;;;;;;5073682;28;20706;-80
2023/10/04 01:29:15;;;;;;;8.18;2.55;;;13.10;99.90;;;;;;5074016;28;20044;-80
2023/10/04 01:31:41;;;;;;;;;;;13.00;99.90;;;;;;5078204;28;20051;-80
2023/10/04 01:34:07;;;;;;;5.50;2.30;;;13.00;99.90;;;;;;5092581;28;19928;-80
2023/10/04 01:36:36;;;;;;;9.02;2.95;;;13.00;99.90;;;;;;5089696;28;20039;-80
2023/10/04 01:39:07;;;;;;;7.70;2.60;;;13.00;99.90;;;;;;5071663;28;20048;-80
2023/10/04 01:41:38;;;;;;;8.02;2.70;;;13.00;99.90;;;;;;5075839;28;20051;-80
2023/10/04 01:44:09;;;;;;;8.70;2.40;;;13.00;99.90;;;;;;5077727;28;20048;-80
2023/10/04 01:46:38;;;;;;;7.50;2.58;;;13.00;99.90;;;;;;5071783;28;20569;-80
2023/10/04 01:49:09;;;;;;;7.35;2.50;;;13.00;99.90;;;;;;5081821;28;20138;-81
2023/10/04 01:51:35;;;;;;;10.68;2.80;;;13.00;99.90;;;;;;5078049;28;20058;-80
2023/10/04 01:54:06;;;;;;;9.43;2.88;;;13.00;99.90;;;;;;5076340;28;20036;-80
2023/10/04 01:56:32;;;;;;;10.77;3.33;;;13.00;99.90;;;;;;5074690;28;20052;-80
2023/10/04 01:58:58;;;;;;;10.65;2.90;;;13.00;99.90;;;;;;5075345;28;20078;-80
2023/10/04 02:01:23;;;;;;;9.48;2.70;;;13.00;99.90;;;;;;5100406;28;20146;-80
2023/10/04 02:03:49;;;;;;;10.48;3.05;;;13.00;99.90;;;;;;5100159;28;20032;-80
2023/10/04 02:06:15;;;;;;;10.38;2.92;;;13.00;99.90;;;;;;5081469;28;20904;-80
2023/10/04 02:08:43;;;;;;;10.15;2.63;;;13.00;99.90;;;;;;5078224;28;20345;-80
2023/10/04 02:11:11;;;;;;;11.52;3.00;;;13.00;99.90;;;;;;5074322;28;20047;-80
2023/10/04 02:13:40;;;;;;;9.52;2.67;;;13.00;99.90;;;;;;5082388;28;20044;-80
2023/10/04 02:16:08;;;;;;;10.27;2.83;;;13.00;99.90;;;;;;5088717;28;20113;-80
2023/10/04 02:18:34;;;;;;;8.75;2.78;;;13.00;99.90;;;;;;5073764;28;20046;-79
2023/10/04 02:21:00;;;;;;;10.75;3.00;;;13.00;99.90;;;;;;5074508;28;21608;-80
2023/10/04 02:23:26;;;;;;;9.48;3.15;;;13.00;99.90;;;;;;5085381;28;20086;-80
2023/10/04 02:25:52;;;;;;;13.68;3.45;;;13.00;99.90;;;;;;5078675;28;20040;-80
2023/10/04 02:28:24;;;;;;;9.65;3.25;;;13.00;99.90;;;;;;5087150;28;20070;-80
2023/10/04 02:30:54;;;;;;;7.50;2.28;;;13.00;99.90;;;;;;5075441;28;20797;-80
2023/10/04 02:33:19;;;;;;;10.55;3.17;;;13.00;99.90;;;;;;5074956;28;20573;-80
2023/10/04 02:35:47;;;;;;;10.82;3.00;;;12.90;99.90;;;;;;5072418;28;20128;-79
2023/10/04 02:38:19;;;;;;;8.23;3.38;;;12.90;99.90;;;;;;5093607;28;20553;-79
2023/10/04 02:40:50;;;;;;;9.15;3.35;;;13.00;99.90;;;;;;5089657;28;20040;-79
2023/10/04 02:43:23;;;;;;;9.60;2.97;;;12.90;99.90;;;;;;5082357;28;20040;-79
2023/10/04 02:45:50;;;;;;;10.50;2.70;;;12.90;99.90;;;;;;5095824;28;20126;-79
2023/10/04 02:48:16;;;;;;;8.60;3.05;;;12.90;99.90;;;;;;5095919;28;20085;-79
2023/10/04 02:50:43;;;;;;;11.05;3.08;;;12.90;99.90;;;;;;5098998;28;20036;-79
2023/10/04 02:53:12;;;;;;;11.38;3.15;;;12.90;99.90;;;;;;5071708;28;20115;-78
2023/10/04 02:55:38;;;;;;;10.35;3.10;;;12.90;99.90;;;;;;5070307;28;20050;-79
2023/10/04 02:58:06;;;;;;;13.25;3.15;;;12.90;99.90;;;;;;5068170;28;20043;-79
2023/10/04 03:00:33;;;;;;;;;;;12.90;99.90;;;;;;5092081;28;20487;-79
2023/10/04 03:02:59;;;;;;;13.48;3.53;;;12.90;99.90;;;;;;5104698;28;20339;-79
2023/10/04 03:05:29;;;;;;;10.85;2.95;;;12.80;99.90;;;;;;5072852;28;20076;-79
2023/10/04 03:07:55;;;;;;;12.48;3.65;;;12.80;99.90;;;;;;5072875;28;20046;-79
2023/10/04 03:10:24;;;;;;;10.82;3.70;;;12.80;99.90;;;;;;5091260;28;20040;-79
2023/10/04 03:12:54;;;;;;;11.65;3.38;;;12.80;99.90;;;;;;5080236;28;20141;-79
2023/10/04 03:15:24;;;;;;;9.55;3.33;;;12.80;99.90;;;;;;5072616;28;20475;-78
2023/10/04 03:17:51;;;;;;;9.50;3.42;;;12.80;99.90;;;;;;5094942;28;20134;-79
2023/10/04 03:20:20;;;;;;;11.00;3.50;;;12.80;99.90;;;;;;5090901;28;20059;-79
2023/10/04 03:22:47;;;;;;;9.65;3.45;;;12.80;99.90;;;;;;5073471;28;20097;-79
2023/10/04 03:25:15;;;;;;;9.90;3.28;;;12.70;99.90;;;;;;5078837;28;20115;-79
2023/10/04 03:27:44;;;;;;;10.35;3.72;;;12.80;99.90;;;;;;5092522;28;20136;-79
2023/10/04 03:30:15;;;;;;;10.95;3.53;;;12.70;99.90;;;;;;5093637;28;20510;-79
2023/10/04 03:32:51;;;;;;;11.48;3.33;;;12.70;99.90;;;;;;5073280;28;20131;-79
2023/10/04 03:35:20;;;;;;;13.05;3.67;;;12.70;99.90;;;;;;5091515;28;20050;-79
2023/10/04 03:37:54;;;;;;;13.73;3.50;;;12.70;99.90;;;;;;5071338;28;20047;-79
2023/10/04 03:40:22;;;;;;;13.20;3.38;;;12.60;99.90;;;;;;5089230;28;20438;-79
2023/10/04 03:42:48;;;;;;;10.45;3.88;;;12.60;99.90;;;;;;5090176;28;20410;-79
2023/10/04 03:45:17;;;;;;;7.82;2.83;;;12.70;99.90;;;;;;5056726;28;20028;-79
2023/10/04 03:47:44;;;;;;;8.98;3.30;;;12.60;99.90;;;;;;5075987;28;20047;-79
2023/10/04 03:50:12;;;;;;;10.23;3.63;;;12.70;99.90;;;;;;5075820;28;20138;-79
2023/10/04 03:52:39;;;;;;;10.70;3.42;;;12.60;99.90;;;;;;5070600;28;20059;-79
2023/10/04 03:55:09;;;;;;;11.02;3.92;;;12.60;99.90;;;;;;5077510;28;20536;-78
2023/10/04 03:57:38;;;;;;;12.23;3.67;;;12.60;99.90;;;;;;5089388;28;20042;-79
2023/10/04 04:00:07;;;;;;;11.43;3.63;;;12.60;99.90;;;;;;5074037;28;20051;-79
2023/10/04 04:02:32;;;;;;;7.00;3.00;;;12.60;99.90;;;;;;5072149;28;20441;-79
2023/10/04 04:04:58;;;;;;;9.68;3.38;;;12.60;99.90;;;;;;5088652;28;20036;-79
2023/10/04 04:07:26;;;;;;;9.77;3.38;;;12.60;99.90;;;;;;5070457;28;20050;-79
2023/10/04 04:09:52;;;;;;;11.98;3.42;;;12.60;99.90;;;;;;5087942;28;20047;-79
2023/10/04 04:12:18;;;;;;;9.95;3.28;;;12.50;99.90;;;;;;5098452;28;20407;-78
2023/10/04 04:14:43;;;;;;;10.95;3.63;;;12.60;99.90;;;;;;5096165;28;20040;-79
2023/10/04 04:17:09;;;;;;;10.90;3.97;;;12.50;99.90;;;;;;5070084;28;20117;-79
2023/10/04 04:19:36;;;;;;;9.10;3.60;;;12.50;99.90;;;;;;5070584;28;20469;-79
2023/10/04 04:22:01;;;;;;;13.00;3.70;;;12.50;99.90;;;;;;5073722;28;20054;-79
2023/10/04 04:24:28;;;;;;;10.88;3.15;;;12.50;99.90;;;;;;5093243;28;20487;-78
2023/10/04 04:26:58;;;;;;;12.40;3.90;;;12.50;99.90;;;;;;5078924;28;20082;-79
2023/10/04 04:29:24;;;;;;;10.20;3.35;;;12.60;99.90;;;;;;5071138;28;20044;-79
2023/10/04 04:31:52;;;;;;;10.55;3.45;;;12.50;99.90;;;;;;5073643;28;20051;-79
2023/10/04 04:34:18;;;;;;;9.98;3.45;;;12.50;99.90;;;;;;5073609;28;20094;-79
2023/10/04 04:36:46;;;;;;;13.52;3.72;;;12.50;99.90;;;;;;5075643;28;20140;-79
2023/10/04 04:39:18;;;;;;;15.45;3.70;;;12.60;99.90;;;;;;5076583;28;20075;-79
2023/10/04 04:41:46;;;;;;;8.80;3.20;;;12.50;99.90;;;;;;5090606;28;20040;-79
2023/10/04 04:44:19;;;;;;;11.35;3.50;;;12.50;99.90;;;;;;5075313;28;20059;-79
2023/10/04 04:46:47;;;;;;;9.70;3.40;;;12.50;99.90;;;;;;5076013;28;20109;-79
2023/10/04 04:49:13;;;;;;;12.05;3.95;;;12.60;99.90;;;;;;5091838;28;20040;-79
2023/10/04 04:51:39;;;;;;;9.38;3.60;;;12.50;99.90;;;;;;5073572;28;20038;-79
2023/10/04 04:54:06;;;;;;;9.80;3.45;;;12.50;99.90;;;;;;5082340;28;20044;-79
2023/10/04 04:56:32;;;;;;;9.60;3.83;;;12.50;99.90;;;;;;5074653;28;20058;-79
2023/10/04 04:58:57;;;;;;;11.68;3.80;;;12.50;99.90;;;;;;5077639;28;20123;-79
2023/10/04 05:01:23;;;;;;;14.10;3.72;;;12.60;99.90;;;;;;5098495;28;20851;-79
2023/10/04 05:03:51;;;;;;;11.45;3.38;;;12.60;99.90;;;;;;5079126;28;20123;-79
2023/10/04 05:06:23;;;;;;;12.82;3.63;;;12.60;99.90;;;;;;5095194;28;20063;-79
2023/10/04 05:08:50;;;;;;;11.48;3.45;;;12.60;99.90;;;;;;5099135;28;20054;-79
2023/10/04 05:11:16;;;;;;;9.57;3.80;;;12.60;99.90;;;;;;5077553;28;20127;-79
2023/10/04 05:13:41;;;;;;;11.57;3.67;;;12.60;99.90;;;;;;5088585;28;20135;-79
2023/10/04 05:16:07;;;;;;;9.95;3.83;;;12.60;99.90;;;;;;5096736;28;20993;-79
2023/10/04 05:18:33;;;;;;;12.88;3.97;;;12.60;99.90;;;;;;5074599;28;20135;-79
2023/10/04 05:21:00;;;;;;;8.75;3.20;;;12.60;99.90;;;;;;5085461;28;20043;-79
2023/10/04 05:23:28;;;;;;;11.13;4.20;;;12.60;99.90;;;;;;5082001;28;20119;-79
2023/10/04 05:25:54;;;;;;;16.58;3.78;;;12.60;99.90;;;;;;5083904;28;20104;-79
2023/10/04 05:28:24;;;;;;;9.70;3.63;;;12.60;99.90;;;;;;5081529;28;20159;-79
2023/10/04 05:30:51;;;;;;;12.68;4.40;;;12.70;99.90;;;;;;5080090;28;20145;-79
2023/10/04 05:33:21;;;;;;;11.27;3.88;;;12.60;99.90;;;;;;5081969;28;20071;-79
2023/10/04 05:35:48;;;;;;;9.85;4.05;;;12.70;99.90;;;;;;5078163;28;20050;-79
2023/10/04 05:38:17;;;;;;;10.20;3.60;;;12.70;99.90;;;;;;5073116;28;20126;-79
2023/10/04 05:40:44;;;;;;;11.80;3.72;;;12.70;99.90;;;;;;5091983;28;20168;-79
2023/10/04 05:43:11;;;;;;;11.18;3.65;;;12.70;99.90;;;;;;5093274;28;20044;-79
2023/10/04 05:45:37;;;;;;;11.70;3.90;;;12.60;99.90;;;;;;5073075;28;20152;-79
2023/10/04 05:48:05;;;;;;;14.05;4.15;;;12.70;99.90;;;;;;5097161;28;20392;-80
2023/10/04 05:50:32;;;;;;;12.00;4.40;;;12.60;99.90;;;;;;5095427;28;20048;-80
2023/10/04 05:53:04;;;;;;;11.88;3.83;;;12.60;99.90;;;;;;5072011;28;20465;-85
2023/10/04 05:55:29;;;;;;;10.75;4.13;;;12.60;99.90;;;;;;5071316;28;20055;-86
2023/10/04 05:57:55;;;;;;;13.82;4.13;;;12.60;99.90;;;;;;5075322;28;20402;-87
2023/10/04 06:02:48;;;;;;;11.68;4.05;;;12.60;99.90;;;;;;5092548;28;20549;-87
2023/10/04 06:05:14;;;;;;;13.60;4.72;;;12.60;99.90;;;;;;5074239;28;20050;-86
2023/10/04 06:07:40;;;;;;;14.05;4.45;;;12.60;99.90;;;;;;5078659;28;20040;-87
2023/10/04 06:10:06;;;;;;;14.55;4.75;;;12.60;99.90;;;;;;5083893;28;20070;-86
2023/10/04 06:12:32;;;;;;;17.27;4.85;;;12.60;99.90;;;;;;5095856;28;20705;-84
2023/10/04 06:14:58;;;;;;;12.52;4.05;;;12.60;99.90;;;;;;5092493;28;20047;-84
2023/10/04 06:17:23;;;;;;;9.88;4.20;;;12.60;99.90;;;;;;5075244;28;20109;-83
2023/10/04 06:19:54;;;;;;;8.52;3.80;;;12.60;99.90;;;;;;5078109;28;20052;-83
2023/10/04 06:22:20;;;;;;;9.07;4.20;;;12.60;99.90;;;;;;5079455;28;20050;-84
2023/10/04 06:24:45;;;;;;;11.02;3.72;;;12.70;99.90;;;;;;5080970;28;20443;-83
2023/10/04 06:27:11;;;;;;;11.63;4.10;;;12.70;99.90;;;;;;5078101;28;20570;-83
2023/10/04 06:29:37;;;;;;;10.43;3.80;;;12.70;99.90;;;;;;5075447;28;20043;-84
2023/10/04 06:32:03;;;;;;;11.52;4.40;;;12.80;99.90;;;;;;5080683;28;20051;-84
2023/10/04 06:34:28;;;;;;;10.40;3.80;;;12.80;99.90;;;;;;5091384;28;20044;-83
2023/10/04 06:36:54;;;;;;;10.38;4.03;;;12.80;99.90;;;;;;5076701;28;20878;-84
2023/10/04 06:39:20;;;;;;;10.18;3.75;;;12.90;99.90;;;;;;5072901;28;20040;-84
2023/10/04 06:41:45;;;;;;;13.48;4.13;;;12.90;99.90;;;;;;5072710;28;20040;-84
2023/10/04 06:44:11;;;;;;;10.65;3.90;;;13.00;99.90;;;;;;5070759;28;20115;-84
2023/10/04 06:46:37;;;;;;;11.95;4.18;;;13.00;99.90;;;;;;5080215;28;20582;-84
2023/10/04 06:49:05;;;;;;;10.90;4.10;;;13.00;99.90;;;;;;5101232;28;20031;-84
2023/10/04 06:51:31;;;;;;;13.02;4.68;;;13.10;99.90;;;;;;5083549;28;20110;-84
2023/10/04 06:53:58;;;;;;;14.80;3.95;;;13.10;99.90;;;;;;5087639;28;20430;-83
2023/10/04 06:56:24;;;;;;;16.38;4.10;;;13.10;99.90;;;;;;5072988;28;20048;-83
2023/10/04 06:58:50;;;;;;;10.90;3.90;;;13.20;99.90;;;;;;5078381;28;20055;-84
2023/10/04 07:01:16;;;;;;;10.70;4.30;;;13.20;99.90;;;;;;5095283;28;20435;-85
2023/10/04 07:03:43;;;;;;;14.50;4.05;;;13.20;99.90;;;;;;5095017;28;21051;-80
2023/10/04 07:06:09;;;;;;;14.25;4.13;;;13.30;99.90;;;;;;5092154;28;20044;-79
2023/10/04 07:08:35;;;;;;;12.82;4.30;;;13.30;99.90;;;;;;5077264;28;20044;-78
2023/10/04 07:11:03;;;;;;;11.55;3.88;;;13.30;99.90;;;;;;5076351;28;20073;-79
2023/10/04 07:13:32;;;;;;;11.55;4.00;;;13.40;99.90;;;;;;5090971;28;20040;-78
2023/10/04 07:15:58;;;;;;;9.23;3.60;;;13.40;99.90;;;;;;5073517;28;20082;-75
2023/10/04 07:18:25;;;;;;;13.02;4.13;;;13.40;99.90;;;;;;5069484;28;20036;-77
2023/10/04 07:20:51;;;;;;;13.35;4.18;;;13.50;99.90;;;;;;5070776;28;20036;-76
2023/10/04 07:23:17;;;;;;;9.98;4.28;;;13.50;99.90;;;;;;5068565;28;20056;-78
2023/10/04 07:25:44;;;;;;;12.40;4.35;;;13.60;99.90;;;;;;5067131;28;20044;-78
2023/10/04 07:28:11;;;;;;;14.60;4.07;;;13.60;99.90;;;;;;5076840;28;20048;-78
2023/10/04 07:30:39;;;;;;;14.27;4.22;;;13.70;99.90;;;;;;5073032;28;20052;-79
2023/10/04 07:33:05;;;;;;;11.68;4.20;;;13.70;99.90;;;;;;5077991;28;20503;-78
2023/10/04 07:35:32;;;;;;;12.98;3.85;;;13.80;99.90;;;;;;5083329;28;20044;-78
2023/10/04 07:37:58;;;;;;;13.30;4.30;;;13.80;99.90;;;;;;5067386;28;20040;-79
2023/10/04 07:40:26;;;;;;;14.85;4.47;;;13.80;99.90;;;;;;5083481;28;20040;-79
2023/10/04 07:42:53;;;;;;;12.52;4.25;;;13.80;99.90;;;;;;5069249;28;20044;-81
2023/10/04 07:45:25;;;;;;;13.50;4.68;;;13.80;99.90;;;;;;5068063;28;20503;-77
2023/10/04 07:47:51;;;;;;;9.65;3.75;;;13.80;99.90;;;;;;5070511;28;20052;-82
2023/10/04 07:50:25;;;;;;;12.60;4.30;;;13.80;99.90;;;;;;5069952;28;20048;-82
2023/10/04 07:53:04;;;;;;;11.55;3.92;;;13.80;99.90;;;;;;5075324;28;20090;-80
2023/10/04 07:55:30;;;;;;;15.77;4.72;;;13.90;99.90;;;;;;5071138;28;20061;-82
2023/10/04 07:58:03;;;;;;;10.27;3.92;;;13.90;99.90;;;;;;5074762;28;20056;-78
2023/10/04 08:00:29;;;;;;;11.35;4.30;;;14.00;99.90;;;;;;5067834;28;20048;-77
2023/10/04 08:02:57;;;;;;;11.73;4.68;;;14.10;99.90;;;;;;5079168;28;20044;-79
2023/10/04 08:05:27;;;;;;;10.48;4.13;;;14.10;99.90;;;;;;5070741;28;20626;-79
2023/10/04 08:07:57;;;;;;;12.98;4.20;;;14.20;99.90;;;;;;5079822;28;20052;-78
2023/10/04 08:10:25;;;;;;;15.20;4.57;;;14.20;99.90;;;;;;5070867;28;20161;-76
2023/10/04 08:12:53;;;;;;;14.38;4.43;;;14.30;99.90;;;;;;5079199;28;20052;-78
2023/10/04 08:15:21;;;;;;;12.82;4.00;;;14.40;99.90;;;;;;5074668;28;20115;-76
2023/10/04 08:17:51;;;;;;;12.07;4.45;;;14.40;99.90;;;;;;5102393;28;20670;-78
2023/10/04 08:20:20;;;;;;;14.40;4.55;;;14.50;99.90;;;;;;5096521;28;20066;-80
2023/10/04 08:22:47;;;;;;;10.73;4.07;;;14.50;99.90;;;;;;5083595;28;20487;-78
2023/10/04 08:25:17;;;;;;;16.20;4.90;;;14.60;99.90;;;;;;5091391;28;20180;-78
2023/10/04 08:27:48;;;;;;;15.88;4.82;;;14.60;99.90;;;;;;5076370;28;20048;-78
2023/10/04 08:30:14;;;;;;;11.85;3.92;;;14.70;99.90;;;;;;5083464;28;20039;-75
2023/10/04 08:32:41;;;;;;;13.43;4.70;;;14.70;99.90;;;;;;5081241;28;20036;-78
2023/10/04 08:35:24;;;;;;;15.77;4.78;;;14.80;99.90;;;;;;5097387;28;20587;-76
2023/10/04 08:37:56;;;;;;;12.18;4.22;;;14.80;99.90;;;;;;5074462;28;20051;-87
2023/10/04 08:40:23;;;;;;;13.02;4.50;;;14.80;99.90;;;;;;5091347;28;20036;-86
2023/10/04 08:42:52;;;;;;;12.13;4.35;;;14.90;99.90;;;;;;5097902;28;20043;-91
2023/10/04 08:45:18;;;;;;;14.38;4.35;;;14.90;99.90;;;;;;5094348;28;20048;-92
2023/10/04 08:47:54;;;;;;;9.90;3.80;;;15.00;99.90;;;;;;5084884;28;20115;-92
2023/10/04 08:50:49;;;;;;;13.43;4.45;;;15.00;99.90;;;;;;5079923;28;20043;-89
2023/10/04 08:53:44;;;;;;;13.52;4.75;;;15.00;99.90;;;;;;5076399;28;20094;-88
2023/10/04 08:56:14;;;;;;;13.85;4.60;;;15.10;99.90;;;;;;5084236;28;20044;-83
2023/10/04 08:58:40;;;;;;;14.00;4.40;;;15.10;99.90;;;;;;5074145;28;20083;-86
2023/10/04 09:01:06;;;;;;;13.15;4.43;;;15.20;99.90;;;;;;5074764;28;20051;-79
2023/10/04 09:03:36;;;;;;;13.63;4.65;;;15.20;99.90;;;;;;5095504;28;20040;-86
2023/10/04 09:06:05;;;;;;;15.52;5.65;;;15.30;99.90;;;;;;5095206;28;20036;-86
2023/10/04 09:08:31;;;;;;;11.60;5.07;;;15.30;99.90;;;;;;5091568;28;20040;-87
2023/10/04 09:10:58;;;;;;;13.70;4.55;;;15.40;99.90;;;;;;5084264;28;20415;-78
2023/10/04 09:13:23;;;;;;;16.42;5.30;;;15.40;99.90;;;;;;5079519;28;20487;-81
2023/10/04 09:15:50;;;;;;;16.05;4.75;;;15.40;99.90;;;;;;5104388;28;20065;-85
2023/10/04 09:18:29;;;;;;;12.73;4.35;;;15.50;99.90;;;;;;5098865;28;20056;-84
2023/10/04 09:20:55;;;;;;;12.70;5.03;;;15.50;99.90;;;;;;5090751;28;20071;-86
2023/10/04 09:23:24;;;;;;;14.13;4.15;;;15.60;99.90;;;;;;5097358;28;20510;-82
2023/10/04 09:25:54;;;;;;;11.73;4.40;;;15.60;99.90;;;;;;5074475;28;20062;-81
2023/10/04 09:28:20;;;;;;;12.98;4.50;;;15.70;99.90;;;;;;5078779;28;20047;-84
2023/10/04 09:30:45;;;;;;;13.27;4.72;;;15.60;99.90;;;;;;5098501;28;20051;-90
2023/10/04 09:33:33;;;;;;;13.38;4.53;;;15.60;99.90;;;;;;5095123;28;20448;-86
2023/10/04 09:35:59;;;;;;;15.65;4.57;;;15.70;99.90;;;;;;5083543;28;20067;-87
2023/10/04 09:38:25;;;;;;;14.52;4.63;;;15.70;99.90;;;;;;5091548;28;20044;-92
2023/10/04 09:40:59;;;;;;;17.48;4.78;;;15.70;99.90;;;;;;5074333;28;20032;-90
2023/10/04 09:43:36;;;;;;;14.52;4.78;;;15.80;99.90;;;;;;5072491;28;20468;-80
2023/10/04 09:46:07;;;;;;;12.60;4.43;;;15.80;99.90;;;;;;5068947;28;20089;-86
2023/10/04 09:48:36;;;;;;;33.78;5.80;;;15.90;99.90;;;;;;5074244;28;20417;-88
2023/10/04 09:51:05;;;;;;;14.38;4.45;;;15.90;99.90;;;;;;5090938;28;20050;-78
2023/10/04 09:53:31;;;;;;;10.85;4.38;;;16.00;99.90;;;;;;5074833;28;20059;-79
2023/10/04 09:56:01;;;;;;;11.35;4.55;;;16.10;99.90;;;;;;5080865;28;20141;-78
2023/10/04 09:58:30;;;;;;;12.77;4.50;;;16.20;99.90;;;;;;5066288;28;20163;-79
2023/10/04 10:01:08;;;;;;;14.30;4.90;;;16.20;99.90;;;;;;5091194;28;20044;-77
2023/10/04 10:03:49;;;;;;;12.05;4.60;;;16.20;99.90;;;;;;5072655;28;20054;-75
2023/10/04 10:06:21;;;;;;;13.63;4.75;;;16.30;99.90;;;;;;5087193;28;20098;-80
2023/10/04 10:08:56;;;;;;;13.05;4.88;;;16.20;99.90;;;;;;5074205;28;20044;-80
2023/10/04 10:11:22;;;;;;;12.18;4.20;;;16.30;99.90;;;;;;5088479;28;20562;-80
2023/10/04 10:13:49;;;;;;;11.97;4.73;;;16.30;99.90;;;;;;5074585;28;20044;-76
2023/10/04 10:16:18;;;;;;;15.95;4.65;;;16.40;99.90;;;;;;5072123;28;20044;-74
2023/10/04 10:18:44;;;;;;;13.38;4.68;;;16.40;99.90;;;;;;5071274;28;20414;-76
2023/10/04 10:21:09;;;;;;;14.02;3.95;;;16.50;99.90;;;;;;5087220;28;20040;-75
2023/10/04 10:23:54;;;;;;;12.40;4.35;;;16.50;99.90;;;;;;5078459;28;20039;-74
2023/10/04 10:26:20;;;;;;;15.05;4.55;;;16.50;99.90;;;;;;5090015;28;20441;-75
2023/10/04 10:28:59;;;;;;;14.85;4.70;;;16.60;99.90;;;;;;5072240;28;20048;-76
2023/10/04 10:31:26;;;;;;;14.55;4.78;;;16.60;99.90;;;;;;5073814;28;20047;-75
2023/10/04 10:33:55;;;;;;;14.75;4.50;;;16.60;99.90;;;;;;5092219;28;20047;-76
2023/10/04 10:36:25;;;;;;;15.73;4.60;;;16.70;99.90;;;;;;5097249;28;20047;-75
2023/10/04 10:38:52;;;;;;;13.82;5.00;;;16.70;99.90;;;;;;5086387;28;20050;-76
2023/10/04 10:41:27;;;;;;;;;;;16.70;99.90;;;;;;5090002;28;20028;-77
2023/10/04 10:44:23;;;;;;;11.80;4.38;;;16.70;99.90;;;;;;5075877;28;19991;-76
2023/10/04 10:47:12;;;;;;;11.80;4.78;;;16.60;99.90;;;;;;5091319;28;20044;-82
2023/10/04 10:49:48;;;;;;;11.98;4.30;;;16.70;99.90;;;;;;5079413;28;20090;-82
2023/10/04 10:52:34;;;;;;;12.40;4.40;;;16.70;99.90;;;;;;5073621;28;20044;-82
2023/10/04 10:55:07;;;;;;;15.52;4.35;;;16.70;99.90;;;;;;5090621;28;20060;-82
2023/10/04 10:57:36;;;;;;;14.05;4.85;;;16.70;99.90;;;;;;5090293;28;20412;-82
2023/10/04 11:00:18;;;;;;;10.77;4.78;;;16.80;99.90;;;;;;5072576;28;20044;-82
2023/10/04 11:02:48;;;;;;;12.38;4.82;;;16.80;99.90;;;;;;5095691;28;20229;-82
2023/10/04 11:05:16;;;;;;;15.48;4.47;;;16.90;99.90;;;;;;5082967;28;20127;-83
2023/10/04 11:07:45;;;;;;;14.27;5.15;;;16.90;99.90;;;;;;5070887;28;20039;-81
2023/10/04 11:10:16;;;;;;;13.85;5.50;;;16.90;99.90;;;;;;5092459;28;20040;-80
2023/10/04 11:12:50;;;;;;;14.88;5.18;;;17.00;99.90;;;;;;5074350;28;20058;-80
2023/10/04 11:15:20;;;;;;;12.38;5.05;;;17.00;99.90;;;;;;5079707;28;20074;-79
2023/10/04 11:17:46;;;;;;;13.65;4.97;;;17.00;99.90;;;;;;5074000;28;20516;-82
2023/10/04 11:20:17;;;;;;;12.82;5.50;;;16.90;99.90;;;;;;5091984;28;20115;-82
2023/10/04 11:22:45;;;;;;;12.60;5.38;;;16.90;99.90;;;;;;5074820;28;20036;-77
2023/10/04 11:25:13;;;;;;;19.02;6.05;;;16.90;99.90;;;;;;5071633;28;20056;-78
2023/10/04 11:27:45;;;;;;;15.48;5.13;;;16.90;99.90;;;;;;5073395;28;20055;-76
2023/10/04 11:30:13;;;;;;;12.73;4.80;;;16.90;99.90;;;;;;5076085;28;20046;-78
2023/10/04 11:32:46;;;;;;;16.10;5.25;;;16.90;99.90;;;;;;5076022;28;20440;-79
2023/10/04 11:35:13;;;;;;;11.75;4.95;;;16.80;99.90;;;;;;5075523;28;20048;-76
2023/10/04 11:37:43;;;;;;;15.85;5.43;;;16.90;99.90;;;;;;5075632;28;20040;-77
2023/10/04 11:40:13;;;;;;;15.57;5.35;;;16.90;99.90;;;;;;5074114;28;20040;-76
2023/10/04 11:42:41;;;;;;;12.70;5.22;;;16.90;99.90;;;;;;5079303;28;20500;-76
2023/10/04 11:45:23;;;;;;;13.80;5.03;;;16.90;99.90;;;;;;5099433;28;20082;-77
2023/10/04 11:48:00;;;;;;;14.75;5.25;;;16.90;99.90;;;;;;5073409;28;20086;-79
2023/10/04 11:50:43;;;;;;;;;;;16.90;99.90;;;;;;5075092;28;20085;-79
2023/10/04 11:53:11;;;;;;;16.08;5.50;;;16.80;99.90;;;;;;5072519;28;19924;-82
2023/10/04 11:55:37;;;;;;;12.63;5.13;;;16.80;99.90;;;;;;5064839;28;20048;-77
2023/10/04 11:58:05;;;;;;;12.52;5.40;;;16.90;99.90;;;;;;5075569;28;20068;-79
2023/10/04 12:00:30;;;;;;;;;;;16.90;99.90;;;;;;5059468;28;20036;-83
2023/10/04 12:02:56;;;;;;;13.57;5.00;;;16.90;99.90;;;;;;5079593;28;19940;-80
2023/10/04 12:05:22;;;;;;;14.63;5.68;;;16.90;99.90;;;;;;5070056;28;20055;-84
2023/10/04 12:07:47;;;;;;;15.32;5.07;;;16.90;99.90;;;;;;5071306;28;20046;-84
2023/10/04 12:10:15;;;;;;;14.77;5.30;;;16.90;99.90;;;;;;5069762;28;20082;-83
2023/10/04 12:12:42;;;;;;;13.73;5.28;;;16.90;99.90;;;;;;5080293;28;20095;-84
2023/10/04 12:15:08;;;;;;;17.92;5.45;;;16.90;99.90;;;;;;5069038;28;20054;-84
2023/10/04 12:17:35;;;;;;;13.65;4.88;;;16.90;99.90;;;;;;5083911;28;20513;-85
2023/10/04 12:20:05;;;;;;;11.80;4.97;;;16.90;99.90;;;;;;5070967;28;20105;-86
2023/10/04 12:22:30;;;;;;;16.83;5.50;;;16.90;99.90;;;;;;5056621;28;20048;-86
2023/10/04 12:24:59;;;;;;;15.57;4.95;;;16.90;99.90;;;;;;5065955;28;20029;-86
2023/10/04 12:27:25;;;;;;;14.68;5.07;;;16.90;99.90;;;;;;5071405;28;20063;-86
2023/10/04 12:29:51;;;;;;;14.95;5.05;;;16.80;99.90;;;;;;5068848;28;20036;-86
2023/10/04 12:32:19;;;;;;;17.27;5.43;;;16.80;99.90;;;;;;5066697;28;20048;-86
2023/10/04 12:34:45;;;;;;;12.48;5.10;;;16.80;99.90;;;;;;5067529;28;20494;-86
2023/10/04 12:37:12;;;;;;;19.50;5.03;;;16.70;99.90;;;;;;5078894;28;20093;-87
2023/10/04 12:39:38;;;;;;;15.98;5.72;;;16.80;99.90;;;;;;5075856;28;20045;-87
2023/10/04 12:42:04;;;;;;;16.67;5.28;;;16.80;99.90;;;;;;5068354;28;20127;-88
2023/10/04 12:44:31;;;;;;;14.15;5.18;;;16.80;99.90;;;;;;5067470;28;20048;-83
2023/10/04 12:46:57;;;;;;;12.35;5.20;;;17.00;99.90;;;;;;5068980;28;20051;-82
2023/10/04 12:49:23;;;;;;;11.70;5.22;;;17.10;99.90;;;;;;5076313;28;20048;-82